San Marcos, California
Current Conditions -  °F | °C
As of 3:53 PM on Saturday 25 Oct 2014 (Local Time) from KCRQ Reporting Station
Clear Clear  
Wind Chill: 22°   Ceiling: Unl
Heat Index: 22°   Visibility: 10mi
Dew Point: 17°   Wind: 10mph
Humidity: 73%   Direction: 260°W
Pressure: 30"   Gusts: NA
Location:  33.14°N, 117.15°W
Report Text: KCRQ 252253Z AUTO 26009KT 10SM CLR 22/17 A3000 RMK AO2 SLP157 T02170167 TSNO
Loading
Personal Weather Stations






























Interactive Weather Map
Tropical Storm Tracking
New forecast layout! Learn more

10-Day Weather Forecast

Advertisements
Track Severe Weather on mobile